sensor_id;sensor_type;location;lat;lon;timestamp;P1;durP1;ratioP1;P2;durP2;ratioP2
4597;SDS011;62772;48.646;8.906;2023-05-02T00:03:09;9.50;;;7.40;;
4597;SDS011;62772;48.646;8.906;2023-05-02T00:08:11;9.43;;;6.80;;
4597;SDS011;62772;48.646;8.906;2023-05-02T00:13:11;9.10;;;6.57;;
4597;SDS011;62772;48.646;8.906;2023-05-02T00:18:12;8.23;;;6.50;;
4597;SDS011;62772;48.646;8.906;2023-05-02T00:23:12;9.37;;;6.70;;
4597;SDS011;62772;48.646;8.906;2023-05-02T00:28:13;8.60;;;6.63;;
4597;SDS011;62772;48.646;8.906;2023-05-02T00:33:13;13.20;;;7.70;;
4597;SDS011;62772;48.646;8.906;2023-05-02T00:38:14;13.30;;;7.90;;
4597;SDS011;62772;48.646;8.906;2023-05-02T00:43:14;11.67;;;8.70;;
4597;SDS011;62772;48.646;8.906;2023-05-02T00:48:15;12.73;;;9.13;;
4597;SDS011;62772;48.646;8.906;2023-05-02T00:53:17;16.30;;;10.33;;
4597;SDS011;62772;48.646;8.906;2023-05-02T00:58:18;19.00;;;9.70;;
4597;SDS011;62772;48.646;8.906;2023-05-02T01:03:35;14.70;;;10.63;;
4597;SDS011;62772;48.646;8.906;2023-05-02T01:14:25;15.73;;;9.50;;
4597;SDS011;62772;48.646;8.906;2023-05-02T01:19:31;15.23;;;10.93;;
4597;SDS011;62772;48.646;8.906;2023-05-02T01:24:42;15.47;;;10.40;;
4597;SDS011;62772;48.646;8.906;2023-05-02T01:29:58;16.60;;;10.73;;
4597;SDS011;62772;48.646;8.906;2023-05-02T01:35:01;14.23;;;10.30;;
4597;SDS011;62772;48.646;8.906;2023-05-02T01:40:03;16.53;;;9.67;;
4597;SDS011;62772;48.646;8.906;2023-05-02T01:45:06;13.70;;;9.83;;
4597;SDS011;62772;48.646;8.906;2023-05-02T01:50:07;14.80;;;10.53;;
4597;SDS011;62772;48.646;8.906;2023-05-02T01:55:13;13.70;;;9.63;;
4597;SDS011;62772;48.646;8.906;2023-05-02T02:00:16;12.00;;;9.33;;
4597;SDS011;62772;48.646;8.906;2023-05-02T02:05:18;13.60;;;8.90;;
4597;SDS011;62772;48.646;8.906;2023-05-02T02:10:21;13.63;;;9.63;;
4597;SDS011;62772;48.646;8.906;2023-05-02T02:15:26;11.30;;;8.10;;
4597;SDS011;62772;48.646;8.906;2023-05-02T02:20:28;10.00;;;7.30;;
4597;SDS011;62772;48.646;8.906;2023-05-02T02:25:29;7.30;;;5.70;;
4597;SDS011;62772;48.646;8.906;2023-05-02T02:30:31;9.77;;;6.87;;
4597;SDS011;62772;48.646;8.906;2023-05-02T02:35:42;10.43;;;7.33;;
4597;SDS011;62772;48.646;8.906;2023-05-02T02:40:54;11.40;;;8.50;;
4597;SDS011;62772;48.646;8.906;2023-05-02T02:56:41;10.50;;;7.33;;
4597;SDS011;62772;48.646;8.906;2023-05-02T03:01:45;14.50;;;8.13;;
4597;SDS011;62772;48.646;8.906;2023-05-02T03:06:50;11.87;;;8.90;;
4597;SDS011;62772;48.646;8.906;2023-05-02T03:11:51;12.83;;;8.70;;
4597;SDS011;62772;48.646;8.906;2023-05-02T03:16:52;11.87;;;8.50;;
4597;SDS011;62772;48.646;8.906;2023-05-02T03:21:53;15.03;;;9.53;;
4597;SDS011;62772;48.646;8.906;2023-05-02T03:26:54;12.90;;;9.70;;
4597;SDS011;62772;48.646;8.906;2023-05-02T03:31:59;14.33;;;9.10;;
4597;SDS011;62772;48.646;8.906;2023-05-02T03:36:59;15.80;;;10.37;;
4597;SDS011;62772;48.646;8.906;2023-05-02T03:42:00;12.97;;;8.97;;
4597;SDS011;62772;48.646;8.906;2023-05-02T03:47:01;13.93;;;9.90;;
4597;SDS011;62772;48.646;8.906;2023-05-02T03:52:03;12.73;;;9.87;;
4597;SDS011;62772;48.646;8.906;2023-05-02T03:57:07;13.43;;;10.03;;
4597;SDS011;62772;48.646;8.906;2023-05-02T04:02:08;14.53;;;10.53;;
4597;SDS011;62772;48.646;8.906;2023-05-02T04:07:15;14.20;;;10.13;;
4597;SDS011;62772;48.646;8.906;2023-05-02T04:12:21;14.30;;;9.70;;
4597;SDS011;62772;48.646;8.906;2023-05-02T04:17:24;15.70;;;9.90;;
4597;SDS011;62772;48.646;8.906;2023-05-02T04:22:25;13.80;;;10.23;;
4597;SDS011;62772;48.646;8.906;2023-05-02T04:27:30;13.77;;;10.03;;
4597;SDS011;62772;48.646;8.906;2023-05-02T04:32:32;14.10;;;10.53;;
4597;SDS011;62772;48.646;8.906;2023-05-02T04:37:35;14.37;;;10.83;;
4597;SDS011;62772;48.646;8.906;2023-05-02T04:42:35;19.60;;;11.10;;
4597;SDS011;62772;48.646;8.906;2023-05-02T04:47:49;14.50;;;9.80;;
4597;SDS011;62772;48.646;8.906;2023-05-02T04:52:49;12.53;;;9.80;;
4597;SDS011;62772;48.646;8.906;2023-05-02T04:57:50;14.33;;;10.00;;
4597;SDS011;62772;48.646;8.906;2023-05-02T05:02:51;16.80;;;10.77;;
4597;SDS011;62772;48.646;8.906;2023-05-02T05:07:52;18.57;;;12.77;;
4597;SDS011;62772;48.646;8.906;2023-05-02T05:12:54;31.90;;;13.87;;
4597;SDS011;62772;48.646;8.906;2023-05-02T05:17:56;27.30;;;16.17;;
4597;SDS011;62772;48.646;8.906;2023-05-02T05:22:57;28.23;;;17.10;;
4597;SDS011;62772;48.646;8.906;2023-05-02T05:27:59;27.00;;;18.27;;
4597;SDS011;62772;48.646;8.906;2023-05-02T05:33:00;27.07;;;19.03;;
4597;SDS011;62772;48.646;8.906;2023-05-02T05:38:01;23.47;;;15.87;;
4597;SDS011;62772;48.646;8.906;2023-05-02T05:43:04;27.43;;;17.20;;
4597;SDS011;62772;48.646;8.906;2023-05-02T05:48:08;24.57;;;17.40;;
4597;SDS011;62772;48.646;8.906;2023-05-02T05:53:14;24.70;;;16.83;;
4597;SDS011;62772;48.646;8.906;2023-05-02T05:58:18;23.57;;;16.53;;
4597;SDS011;62772;48.646;8.906;2023-05-02T06:03:19;23.87;;;16.23;;
4597;SDS011;62772;48.646;8.906;2023-05-02T06:08:20;26.93;;;16.87;;
4597;SDS011;62772;48.646;8.906;2023-05-02T06:13:21;24.50;;;16.27;;
4597;SDS011;62772;48.646;8.906;2023-05-02T06:18:22;26.83;;;17.80;;
4597;SDS011;62772;48.646;8.906;2023-05-02T06:23:23;30.20;;;18.30;;
4597;SDS011;62772;48.646;8.906;2023-05-02T06:28:24;26.03;;;16.70;;
4597;SDS011;62772;48.646;8.906;2023-05-02T06:33:24;32.17;;;21.03;;
4597;SDS011;62772;48.646;8.906;2023-05-02T06:38:25;34.70;;;21.80;;
4597;SDS011;62772;48.646;8.906;2023-05-02T06:43:25;33.57;;;21.77;;
4597;SDS011;62772;48.646;8.906;2023-05-02T06:48:26;33.30;;;20.27;;
4597;SDS011;62772;48.646;8.906;2023-05-02T06:53:26;34.10;;;21.40;;
4597;SDS011;62772;48.646;8.906;2023-05-02T06:58:27;38.23;;;23.10;;
4597;SDS011;62772;48.646;8.906;2023-05-02T07:03:29;36.60;;;22.60;;
4597;SDS011;62772;48.646;8.906;2023-05-02T07:08:29;49.97;;;25.30;;
4597;SDS011;62772;48.646;8.906;2023-05-02T07:13:30;37.00;;;23.90;;
4597;SDS011;62772;48.646;8.906;2023-05-02T07:18:30;41.77;;;26.77;;
4597;SDS011;62772;48.646;8.906;2023-05-02T07:23:31;39.53;;;24.67;;
4597;SDS011;62772;48.646;8.906;2023-05-02T07:28:31;45.70;;;25.77;;
4597;SDS011;62772;48.646;8.906;2023-05-02T07:33:32;44.30;;;26.40;;
4597;SDS011;62772;48.646;8.906;2023-05-02T07:38:32;43.00;;;25.03;;
4597;SDS011;62772;48.646;8.906;2023-05-02T07:43:33;44.10;;;26.13;;
4597;SDS011;62772;48.646;8.906;2023-05-02T07:48:33;41.43;;;26.90;;
4597;SDS011;62772;48.646;8.906;2023-05-02T07:53:34;45.37;;;27.67;;
4597;SDS011;62772;48.646;8.906;2023-05-02T07:58:34;50.63;;;32.00;;
4597;SDS011;62772;48.646;8.906;2023-05-02T08:03:38;56.80;;;33.20;;
4597;SDS011;62772;48.646;8.906;2023-05-02T08:08:38;52.70;;;31.80;;
4597;SDS011;62772;48.646;8.906;2023-05-02T08:13:39;56.80;;;32.80;;
4597;SDS011;62772;48.646;8.906;2023-05-02T08:18:39;55.87;;;34.40;;
4597;SDS011;62772;48.646;8.906;2023-05-02T08:23:40;59.00;;;36.10;;
4597;SDS011;62772;48.646;8.906;2023-05-02T08:28:41;55.43;;;35.20;;
4597;SDS011;62772;48.646;8.906;2023-05-02T08:33:41;60.80;;;36.67;;
4597;SDS011;62772;48.646;8.906;2023-05-02T08:38:43;66.77;;;36.43;;
4597;SDS011;62772;48.646;8.906;2023-05-02T08:43:45;62.77;;;36.77;;
4597;SDS011;62772;48.646;8.906;2023-05-02T08:48:46;65.73;;;35.10;;
4597;SDS011;62772;48.646;8.906;2023-05-02T08:53:48;59.70;;;35.20;;
4597;SDS011;62772;48.646;8.906;2023-05-02T08:58:51;56.43;;;34.13;;
4597;SDS011;62772;48.646;8.906;2023-05-02T09:03:51;61.10;;;34.07;;
4597;SDS011;62772;48.646;8.906;2023-05-02T09:08:53;61.90;;;35.77;;
4597;SDS011;62772;48.646;8.906;2023-05-02T09:13:54;63.80;;;34.60;;
4597;SDS011;62772;48.646;8.906;2023-05-02T09:18:55;61.17;;;36.23;;
4597;SDS011;62772;48.646;8.906;2023-05-02T09:23:57;61.90;;;37.17;;
4597;SDS011;62772;48.646;8.906;2023-05-02T09:29:00;62.03;;;34.33;;
4597;SDS011;62772;48.646;8.906;2023-05-02T09:34:08;58.77;;;33.93;;
4597;SDS011;62772;48.646;8.906;2023-05-02T09:39:10;50.37;;;30.57;;
4597;SDS011;62772;48.646;8.906;2023-05-02T09:44:13;46.30;;;29.10;;
4597;SDS011;62772;48.646;8.906;2023-05-02T09:49:17;44.10;;;26.63;;
4597;SDS011;62772;48.646;8.906;2023-05-02T09:54:34;42.20;;;24.67;;
4597;SDS011;62772;48.646;8.906;2023-05-02T09:59:35;35.97;;;24.13;;
4597;SDS011;62772;48.646;8.906;2023-05-02T10:04:36;36.67;;;22.10;;
4597;SDS011;62772;48.646;8.906;2023-05-02T10:09:39;43.43;;;25.03;;
4597;SDS011;62772;48.646;8.906;2023-05-02T10:14:45;41.23;;;23.83;;
4597;SDS011;62772;48.646;8.906;2023-05-02T10:19:54;36.63;;;22.50;;
4597;SDS011;62772;48.646;8.906;2023-05-02T10:24:59;36.80;;;20.47;;
4597;SDS011;62772;48.646;8.906;2023-05-02T10:30:01;31.07;;;19.60;;
4597;SDS011;62772;48.646;8.906;2023-05-02T10:35:05;36.50;;;22.27;;
4597;SDS011;62772;48.646;8.906;2023-05-02T10:40:08;34.27;;;22.37;;
4597;SDS011;62772;48.646;8.906;2023-05-02T10:50:44;36.97;;;19.80;;
4597;SDS011;62772;48.646;8.906;2023-05-02T11:01:38;31.70;;;19.17;;
4597;SDS011;62772;48.646;8.906;2023-05-02T11:12:01;26.20;;;17.23;;
4597;SDS011;62772;48.646;8.906;2023-05-02T11:17:04;24.80;;;16.10;;
4597;SDS011;62772;48.646;8.906;2023-05-02T11:37:51;29.40;;;18.87;;
4597;SDS011;62772;48.646;8.906;2023-05-02T11:42:53;31.17;;;19.57;;
4597;SDS011;62772;48.646;8.906;2023-05-02T11:47:54;29.70;;;19.70;;
4597;SDS011;62772;48.646;8.906;2023-05-02T11:52:57;31.07;;;19.37;;
4597;SDS011;62772;48.646;8.906;2023-05-02T11:57:57;25.53;;;16.47;;
4597;SDS011;62772;48.646;8.906;2023-05-02T12:02:58;24.80;;;16.43;;
4597;SDS011;62772;48.646;8.906;2023-05-02T12:07:58;26.83;;;15.73;;
4597;SDS011;62772;48.646;8.906;2023-05-02T12:13:04;24.60;;;15.70;;
4597;SDS011;62772;48.646;8.906;2023-05-02T12:18:05;29.00;;;16.47;;
4597;SDS011;62772;48.646;8.906;2023-05-02T12:23:06;30.13;;;18.37;;
4597;SDS011;62772;48.646;8.906;2023-05-02T12:28:08;30.27;;;18.77;;
4597;SDS011;62772;48.646;8.906;2023-05-02T12:33:09;37.03;;;22.97;;
4597;SDS011;62772;48.646;8.906;2023-05-02T12:38:11;38.43;;;23.73;;
4597;SDS011;62772;48.646;8.906;2023-05-02T12:43:13;37.10;;;21.90;;
4597;SDS011;62772;48.646;8.906;2023-05-02T12:48:18;33.00;;;20.40;;
4597;SDS011;62772;48.646;8.906;2023-05-02T12:53:42;31.23;;;18.87;;
4597;SDS011;62772;48.646;8.906;2023-05-02T12:58:44;30.63;;;19.90;;
4597;SDS011;62772;48.646;8.906;2023-05-02T13:03:46;33.87;;;21.17;;
4597;SDS011;62772;48.646;8.906;2023-05-02T13:08:50;42.03;;;23.20;;
4597;SDS011;62772;48.646;8.906;2023-05-02T13:13:50;35.70;;;21.57;;
4597;SDS011;62772;48.646;8.906;2023-05-02T13:18:50;32.20;;;19.23;;
4597;SDS011;62772;48.646;8.906;2023-05-02T13:23:51;27.73;;;18.80;;
4597;SDS011;62772;48.646;8.906;2023-05-02T13:28:52;33.83;;;19.23;;
4597;SDS011;62772;48.646;8.906;2023-05-02T13:33:53;32.60;;;19.67;;
4597;SDS011;62772;48.646;8.906;2023-05-02T13:38:53;31.93;;;17.07;;
4597;SDS011;62772;48.646;8.906;2023-05-02T13:43:53;25.60;;;16.20;;
4597;SDS011;62772;48.646;8.906;2023-05-02T13:48:54;25.80;;;14.97;;
4597;SDS011;62772;48.646;8.906;2023-05-02T13:53:54;28.43;;;17.43;;
4597;SDS011;62772;48.646;8.906;2023-05-02T13:58:55;32.47;;;19.13;;
4597;SDS011;62772;48.646;8.906;2023-05-02T14:03:56;29.53;;;17.63;;
4597;SDS011;62772;48.646;8.906;2023-05-02T14:08:56;28.47;;;17.67;;
4597;SDS011;62772;48.646;8.906;2023-05-02T14:13:57;32.07;;;17.07;;
4597;SDS011;62772;48.646;8.906;2023-05-02T14:18:58;26.60;;;16.37;;
4597;SDS011;62772;48.646;8.906;2023-05-02T14:23:59;26.20;;;15.30;;
4597;SDS011;62772;48.646;8.906;2023-05-02T14:28:59;26.50;;;15.30;;
4597;SDS011;62772;48.646;8.906;2023-05-02T14:34:00;22.80;;;13.27;;
4597;SDS011;62772;48.646;8.906;2023-05-02T14:39:01;19.73;;;10.93;;
4597;SDS011;62772;48.646;8.906;2023-05-02T14:44:02;18.70;;;11.60;;
4597;SDS011;62772;48.646;8.906;2023-05-02T14:49:02;22.13;;;12.67;;
4597;SDS011;62772;48.646;8.906;2023-05-02T14:54:03;21.13;;;11.30;;
4597;SDS011;62772;48.646;8.906;2023-05-02T14:59:04;21.33;;;13.13;;
4597;SDS011;62772;48.646;8.906;2023-05-02T15:04:05;25.20;;;13.10;;
4597;SDS011;62772;48.646;8.906;2023-05-02T15:09:05;23.33;;;12.63;;
4597;SDS011;62772;48.646;8.906;2023-05-02T15:14:06;15.93;;;10.73;;
4597;SDS011;62772;48.646;8.906;2023-05-02T15:19:06;20.27;;;11.40;;
4597;SDS011;62772;48.646;8.906;2023-05-02T15:24:06;17.43;;;10.07;;
4597;SDS011;62772;48.646;8.906;2023-05-02T15:29:07;21.10;;;11.90;;
4597;SDS011;62772;48.646;8.906;2023-05-02T15:34:08;17.13;;;9.47;;
4597;SDS011;62772;48.646;8.906;2023-05-02T15:39:08;14.70;;;9.10;;
4597;SDS011;62772;48.646;8.906;2023-05-02T15:44:09;15.70;;;8.23;;
4597;SDS011;62772;48.646;8.906;2023-05-02T15:49:09;16.50;;;8.97;;
4597;SDS011;62772;48.646;8.906;2023-05-02T15:54:10;13.90;;;7.40;;
4597;SDS011;62772;48.646;8.906;2023-05-02T15:59:11;10.13;;;6.83;;
4597;SDS011;62772;48.646;8.906;2023-05-02T16:04:11;14.40;;;7.23;;
4597;SDS011;62772;48.646;8.906;2023-05-02T16:09:12;11.73;;;7.63;;
4597;SDS011;62772;48.646;8.906;2023-05-02T16:14:12;9.57;;;6.33;;
4597;SDS011;62772;48.646;8.906;2023-05-02T16:19:12;9.60;;;5.50;;
4597;SDS011;62772;48.646;8.906;2023-05-02T16:24:13;8.27;;;5.00;;
4597;SDS011;62772;48.646;8.906;2023-05-02T16:29:13;10.63;;;5.60;;
4597;SDS011;62772;48.646;8.906;2023-05-02T16:34:14;8.20;;;5.30;;
4597;SDS011;62772;48.646;8.906;2023-05-02T16:39:14;8.17;;;4.63;;
4597;SDS011;62772;48.646;8.906;2023-05-02T16:44:15;10.27;;;4.60;;
4597;SDS011;62772;48.646;8.906;2023-05-02T16:49:15;6.10;;;3.63;;
4597;SDS011;62772;48.646;8.906;2023-05-02T16:54:16;7.17;;;3.43;;
4597;SDS011;62772;48.646;8.906;2023-05-02T16:59:17;7.43;;;3.90;;
4597;SDS011;62772;48.646;8.906;2023-05-02T17:04:17;6.20;;;3.23;;
4597;SDS011;62772;48.646;8.906;2023-05-02T17:09:21;4.77;;;3.10;;
4597;SDS011;62772;48.646;8.906;2023-05-02T17:14:21;7.00;;;3.90;;
4597;SDS011;62772;48.646;8.906;2023-05-02T17:19:23;5.43;;;3.50;;
4597;SDS011;62772;48.646;8.906;2023-05-02T17:24:23;5.73;;;3.30;;
4597;SDS011;62772;48.646;8.906;2023-05-02T17:29:24;7.17;;;3.50;;
4597;SDS011;62772;48.646;8.906;2023-05-02T17:34:25;7.00;;;3.40;;
4597;SDS011;62772;48.646;8.906;2023-05-02T17:39:27;5.60;;;3.20;;
4597;SDS011;62772;48.646;8.906;2023-05-02T17:44:28;5.17;;;3.07;;
4597;SDS011;62772;48.646;8.906;2023-05-02T17:49:34;5.20;;;3.10;;
4597;SDS011;62772;48.646;8.906;2023-05-02T17:54:34;5.27;;;3.20;;
4597;SDS011;62772;48.646;8.906;2023-05-02T17:59:38;9.00;;;3.97;;
4597;SDS011;62772;48.646;8.906;2023-05-02T18:04:40;5.70;;;3.73;;
4597;SDS011;62772;48.646;8.906;2023-05-02T18:09:40;5.90;;;3.63;;
4597;SDS011;62772;48.646;8.906;2023-05-02T18:14:41;7.30;;;3.87;;
4597;SDS011;62772;48.646;8.906;2023-05-02T18:19:41;6.87;;;3.73;;
4597;SDS011;62772;48.646;8.906;2023-05-02T18:24:42;5.80;;;3.80;;
4597;SDS011;62772;48.646;8.906;2023-05-02T18:29:42;6.33;;;3.70;;
4597;SDS011;62772;48.646;8.906;2023-05-02T18:34:43;7.50;;;4.57;;
4597;SDS011;62772;48.646;8.906;2023-05-02T18:39:43;8.87;;;5.00;;
4597;SDS011;62772;48.646;8.906;2023-05-02T18:44:43;6.33;;;3.63;;
4597;SDS011;62772;48.646;8.906;2023-05-02T18:49:44;9.40;;;4.57;;
4597;SDS011;62772;48.646;8.906;2023-05-02T18:54:45;9.90;;;5.30;;
4597;SDS011;62772;48.646;8.906;2023-05-02T18:59:45;8.17;;;4.90;;
4597;SDS011;62772;48.646;8.906;2023-05-02T19:04:46;7.00;;;4.60;;
4597;SDS011;62772;48.646;8.906;2023-05-02T19:09:46;7.40;;;4.07;;
4597;SDS011;62772;48.646;8.906;2023-05-02T19:14:47;8.27;;;4.90;;
4597;SDS011;62772;48.646;8.906;2023-05-02T19:19:49;8.10;;;4.83;;
4597;SDS011;62772;48.646;8.906;2023-05-02T19:24:50;8.03;;;4.70;;
4597;SDS011;62772;48.646;8.906;2023-05-02T19:29:53;9.00;;;4.67;;
4597;SDS011;62772;48.646;8.906;2023-05-02T19:34:54;10.00;;;5.13;;
4597;SDS011;62772;48.646;8.906;2023-05-02T19:39:56;8.10;;;5.20;;
4597;SDS011;62772;48.646;8.906;2023-05-02T19:44:57;9.87;;;5.13;;
4597;SDS011;62772;48.646;8.906;2023-05-02T19:49:57;9.70;;;4.90;;
4597;SDS011;62772;48.646;8.906;2023-05-02T19:54:58;10.40;;;5.33;;
4597;SDS011;62772;48.646;8.906;2023-05-02T20:00:00;8.53;;;4.80;;
4597;SDS011;62772;48.646;8.906;2023-05-02T20:05:01;8.93;;;5.20;;
4597;SDS011;62772;48.646;8.906;2023-05-02T20:10:01;9.00;;;5.50;;
4597;SDS011;62772;48.646;8.906;2023-05-02T20:15:02;8.43;;;5.40;;
4597;SDS011;62772;48.646;8.906;2023-05-02T20:20:04;9.33;;;5.30;;
4597;SDS011;62772;48.646;8.906;2023-05-02T20:25:07;8.77;;;5.00;;
4597;SDS011;62772;48.646;8.906;2023-05-02T20:30:10;7.93;;;5.00;;
4597;SDS011;62772;48.646;8.906;2023-05-02T20:35:11;7.73;;;4.70;;
4597;SDS011;62772;48.646;8.906;2023-05-02T20:40:11;9.87;;;4.93;;
4597;SDS011;62772;48.646;8.906;2023-05-02T20:45:12;6.60;;;4.23;;
4597;SDS011;62772;48.646;8.906;2023-05-02T20:50:13;9.53;;;5.17;;
4597;SDS011;62772;48.646;8.906;2023-05-02T20:55:16;7.70;;;4.63;;
4597;SDS011;62772;48.646;8.906;2023-05-02T21:00:18;8.83;;;5.23;;
4597;SDS011;62772;48.646;8.906;2023-05-02T21:05:21;8.70;;;5.23;;
4597;SDS011;62772;48.646;8.906;2023-05-02T21:10:21;8.30;;;5.20;;
4597;SDS011;62772;48.646;8.906;2023-05-02T21:15:22;11.10;;;6.10;;
4597;SDS011;62772;48.646;8.906;2023-05-02T21:20:22;10.80;;;6.13;;
4597;SDS011;62772;48.646;8.906;2023-05-02T21:25:23;11.07;;;5.73;;
4597;SDS011;62772;48.646;8.906;2023-05-02T21:30:23;9.60;;;5.93;;
4597;SDS011;62772;48.646;8.906;2023-05-02T21:35:24;8.23;;;5.47;;
4597;SDS011;62772;48.646;8.906;2023-05-02T21:40:24;9.57;;;5.60;;
4597;SDS011;62772;48.646;8.906;2023-05-02T21:45:25;11.57;;;6.17;;
4597;SDS011;62772;48.646;8.906;2023-05-02T21:50:25;13.17;;;6.53;;
4597;SDS011;62772;48.646;8.906;2023-05-02T21:55:26;13.70;;;6.97;;
4597;SDS011;62772;48.646;8.906;2023-05-02T22:00:26;10.90;;;6.57;;
4597;SDS011;62772;48.646;8.906;2023-05-02T22:05:27;9.90;;;6.17;;
4597;SDS011;62772;48.646;8.906;2023-05-02T22:10:28;11.20;;;6.57;;
4597;SDS011;62772;48.646;8.906;2023-05-02T22:15:29;9.90;;;6.20;;
4597;SDS011;62772;48.646;8.906;2023-05-02T22:20:29;9.43;;;6.13;;
4597;SDS011;62772;48.646;8.906;2023-05-02T22:25:30;8.83;;;5.73;;
4597;SDS011;62772;48.646;8.906;2023-05-02T22:30:34;11.20;;;6.70;;
4597;SDS011;62772;48.646;8.906;2023-05-02T22:35:35;12.17;;;7.03;;
4597;SDS011;62772;48.646;8.906;2023-05-02T22:40:37;10.17;;;5.97;;
4597;SDS011;62772;48.646;8.906;2023-05-02T22:45:37;12.03;;;6.53;;
4597;SDS011;62772;48.646;8.906;2023-05-02T22:50:38;14.80;;;7.10;;
4597;SDS011;62772;48.646;8.906;2023-05-02T22:55:39;12.43;;;6.53;;
4597;SDS011;62772;48.646;8.906;2023-05-02T23:00:39;11.63;;;7.47;;
4597;SDS011;62772;48.646;8.906;2023-05-02T23:05:40;11.53;;;6.87;;
4597;SDS011;62772;48.646;8.906;2023-05-02T23:10:40;13.23;;;7.80;;
4597;SDS011;62772;48.646;8.906;2023-05-02T23:15:41;16.10;;;8.33;;
4597;SDS011;62772;48.646;8.906;2023-05-02T23:20:42;12.73;;;7.03;;
4597;SDS011;62772;48.646;8.906;2023-05-02T23:25:42;11.70;;;7.27;;
4597;SDS011;62772;48.646;8.906;2023-05-02T23:30:43;12.57;;;8.10;;
4597;SDS011;62772;48.646;8.906;2023-05-02T23:35:44;10.67;;;6.73;;
4597;SDS011;62772;48.646;8.906;2023-05-02T23:40:44;11.10;;;7.23;;
4597;SDS011;62772;48.646;8.906;2023-05-02T23:45:45;14.37;;;7.70;;
4597;SDS011;62772;48.646;8.906;2023-05-02T23:50:45;13.63;;;7.70;;
4597;SDS011;62772;48.646;8.906;2023-05-02T23:55:46;14.37;;;7.00;;
